Time;durP1;ratioP1;P1;durP2;ratioP2;P2;SDS_P1;SDS_P2;PMS_P1;PMS_P2;Temp;Humidity;BMP_temperature;BMP_pressure;BME280_temperature;BME280_humidity;BME280_pressure;Samples;Min_cycle;Max_cycle;Signal;HPM_P1;HPM_P2
2021/12/27 00:01:33;;;;;;;26.87;14.38;;;;;;;-0.37;57.14;99471.69;4468759;32;34585;-65
2021/12/27 00:04:01;;;;;;;27.77;15.15;;;;;;;-0.42;57.35;99482.91;4467863;32;33768;-64
2021/12/27 00:06:28;;;;;;;28.10;14.45;;;;;;;-0.18;56.86;99489.78;4460393;32;34100;-65
2021/12/27 00:08:56;;;;;;;24.65;13.07;;;;;;;0.10;56.12;99487.28;4460677;32;34186;-65
2021/12/27 00:11:23;;;;;;;24.08;13.05;;;;;;;-0.21;56.51;99471.53;4461010;32;34219;-65
2021/12/27 00:13:51;;;;;;;26.55;13.48;;;;;;;0.03;55.34;99472.22;4460023;32;34387;-65
2021/12/27 00:16:18;;;;;;;28.20;14.02;;;;;;;-0.15;57.27;99470.78;4466395;32;34042;-65
2021/12/27 00:18:46;;;;;;;24.65;13.40;;;;;;;-0.29;57.22;99466.28;4478825;32;35085;-64
2021/12/27 00:21:13;;;;;;;24.45;12.80;;;;;;;0.06;56.55;99456.66;4483913;32;33912;-64
2021/12/27 00:23:41;;;;;;;26.27;13.70;;;;;;;0.43;55.14;99454.78;4484363;32;33199;-64
2021/12/27 00:26:08;;;;;;;26.55;14.15;;;;;;;0.31;55.91;99467.00;4484353;32;33656;-65
2021/12/27 00:28:36;;;;;;;25.27;13.18;;;;;;;0.16;55.46;99470.53;4484035;32;35128;-65
2021/12/27 00:31:03;;;;;;;26.70;14.40;;;;;;;0.01;56.40;99475.06;4484552;32;33843;-65
2021/12/27 00:33:31;;;;;;;24.17;14.32;;;;;;;-0.30;57.41;99470.78;4483721;32;33359;-64
2021/12/27 00:35:59;;;;;;;26.58;14.13;;;;;;;-0.29;57.81;99468.94;4483816;32;34111;-65
2021/12/27 00:38:26;;;;;;;28.60;15.13;;;;;;;-0.17;57.64;99467.47;4483964;32;34295;-66
2021/12/27 00:40:54;;;;;;;25.83;13.00;;;;;;;-0.19;57.69;99468.66;4484022;32;33957;-64
2021/12/27 00:43:21;;;;;;;22.58;13.57;;;;;;;0.14;55.84;99463.72;4483818;32;34508;-65
2021/12/27 00:45:49;;;;;;;25.85;13.23;;;;;;;0.10;55.83;99473.94;4483937;32;34352;-64
2021/12/27 00:48:17;;;;;;;25.70;13.52;;;;;;;-0.07;56.74;99475.97;4483692;32;34293;-63
2021/12/27 00:50:45;;;;;;;28.02;13.62;;;;;;;0.33;55.91;99476.44;4475931;32;33969;-64
2021/12/27 00:53:12;;;;;;;3.22;1.67;;;;;;;0.59;55.68;99475.87;4474161;32;33642;-64
2021/12/27 00:55:40;;;;;;;23.00;12.65;;;;;;;0.73;56.17;99478.69;4474218;32;32592;-62
2021/12/27 00:58:07;;;;;;;25.90;12.75;;;;;;;0.01;58.03;99464.41;4474286;32;34996;-65
2021/12/27 01:00:35;;;;;;;5.45;3.17;;;;;;;-0.24;57.68;99463.88;4475710;32;34751;-65
2021/12/27 01:03:03;;;;;;;1.75;1.37;;;;;;;0.19;56.79;99462.16;4474021;32;34238;-63
2021/12/27 01:05:31;;;;;;;23.35;12.63;;;;;;;0.56;55.27;99460.28;4473921;32;34881;-65
2021/12/27 01:07:59;;;;;;;24.05;12.37;;;;;;;-0.05;56.19;99457.97;4476326;32;34368;-64
2021/12/27 01:18:15;;;;;;;20.83;12.30;;;;;;;0.54;54.77;99470.31;4473300;32;35092;-66
2021/12/27 01:20:44;;;;;;;20.92;11.63;;;;;;;-0.20;56.56;99473.16;4485800;32;34790;-66
2021/12/27 01:23:12;;;;;;;0.88;0.85;;;;;;;-0.08;56.68;99468.19;4485378;32;34392;-65
2021/12/27 01:25:39;;;;;;;22.98;12.00;;;;;;;0.50;56.66;99462.88;4485794;32;34012;-66
2021/12/27 01:28:07;;;;;;;1.23;1.12;;;;;;;-0.26;58.14;99464.06;4485544;32;35045;-65
2021/12/27 01:30:38;;;;;;;1.87;1.77;;;;;;;-0.16;57.55;99465.63;4485601;32;34649;-65
2021/12/27 01:33:08;;;;;;;21.00;11.65;;;;;;;-0.05;56.89;99457.97;4485671;32;33503;-65
2021/12/27 01:35:37;;;;;;;19.37;11.30;;;;;;;-0.24;57.32;99455.88;4485501;32;34081;-66
2021/12/27 01:38:04;;;;;;;24.30;12.15;;;;;;;-0.44;57.50;99450.28;4485593;32;34252;-66
2021/12/27 01:40:32;;;;;;;21.73;11.35;;;;;;;-0.35;57.34;99451.84;4485470;31;33949;-65
2021/12/27 01:43:00;;;;;;;23.12;11.80;;;;;;;0.15;55.76;99452.87;4485273;32;33829;-65
2021/12/27 01:45:28;;;;;;;21.92;12.48;;;;;;;0.55;54.55;99458.59;4484940;32;34430;-66
2021/12/27 01:47:56;;;;;;;24.65;12.90;;;;;;;0.69;55.57;99443.53;4485531;32;34274;-65
2021/12/27 01:50:24;;;;;;;24.85;13.27;;;;;;;-0.19;58.09;99450.84;4485601;32;34853;-66
2021/12/27 01:52:51;;;;;;;2.00;1.83;;;;;;;-0.43;58.69;99441.31;4485237;32;33237;-66
2021/12/27 01:55:18;;;;;;;22.23;12.30;;;;;;;-0.14;57.89;99448.41;4485223;32;34856;-66
2021/12/27 01:57:47;;;;;;;23.85;13.45;;;;;;;-0.27;58.05;99445.59;4485483;32;34316;-65
2021/12/27 02:00:15;;;;;;;3.33;1.92;;;;;;;-0.07;57.66;99454.66;4485068;32;33947;-65
2021/12/27 02:02:44;;;;;;;20.10;11.77;;;;;;;0.29;56.71;99456.50;4485395;32;33668;-65
2021/12/27 02:05:14;;;;;;;23.42;12.45;;;;;;;0.47;55.84;99449.91;4485160;32;33702;-66
2021/12/27 02:07:42;;;;;;;20.27;11.77;;;;;;;0.45;55.51;99447.41;4485240;32;34219;-65
2021/12/27 02:10:10;;;;;;;21.90;11.88;;;;;;;0.53;55.25;99452.63;4485148;32;33980;-66
2021/12/27 02:12:39;;;;;;;8.20;5.35;;;;;;;0.61;54.99;99455.16;4484011;32;34349;-65
2021/12/27 02:15:09;;;;;;;1.55;1.12;;;;;;;0.07;57.17;99452.16;4484926;32;34711;-65
2021/12/27 02:17:39;;;;;;;18.30;11.45;;;;;;;0.26;57.18;99450.69;4485373;32;34051;-66
2021/12/27 02:20:16;;;;;;;6.12;3.60;;;;;;;0.37;56.38;99452.91;4484354;32;34085;-66
2021/12/27 02:22:45;;;;;;;21.70;11.57;;;;;;;0.02;57.37;99450.03;4485076;32;33285;-65
2021/12/27 02:25:14;;;;;;;21.00;11.90;;;;;;;-0.34;58.31;99450.84;4484722;32;34676;-65
2021/12/27 02:27:43;;;;;;;7.60;4.82;;;;;;;-0.24;57.99;99454.06;4485279;32;34152;-66
2021/12/27 02:30:14;;;;;;;19.27;11.65;;;;;;;-0.19;57.83;99452.66;4485150;32;34098;-65
2021/12/27 02:32:46;;;;;;;20.88;11.73;;;;;;;-0.39;58.28;99453.22;4484815;32;34607;-65
2021/12/27 02:35:19;;;;;;;21.65;11.50;;;;;;;0.19;56.85;99446.16;4484812;32;33678;-65
2021/12/27 02:37:47;;;;;;;17.62;10.45;;;;;;;0.34;55.88;99446.06;4485152;32;34869;-66
2021/12/27 02:40:14;;;;;;;19.92;12.37;;;;;;;0.33;57.54;99438.28;4484935;31;33727;-66
2021/12/27 02:42:57;;;;;;;20.42;11.20;;;;;;;0.27;58.89;99429.19;4485050;32;32662;-65
2021/12/27 02:45:28;;;;;;;21.75;12.00;;;;;;;0.06;59.22;99435.31;4484626;32;33733;-65
2021/12/27 02:47:56;;;;;;;2.00;1.73;;;;;;;-0.25;59.92;99436.41;4485075;32;34256;-65
2021/12/27 02:50:24;;;;;;;20.85;10.75;;;;;;;0.53;57.60;99439.28;4485324;32;34861;-66
2021/12/27 02:52:52;;;;;;;21.95;11.00;;;;;;;0.55;56.54;99439.91;4484633;32;33901;-65
2021/12/27 02:55:20;;;;;;;7.75;4.35;;;;;;;0.56;56.67;99430.91;4484535;32;34588;-66
2021/12/27 02:57:50;;;;;;;1.40;0.77;;;;;;;0.73;56.67;99435.97;4485193;32;34063;-66
2021/12/27 03:00:44;;;;;;;19.02;10.70;;;;;;;0.44;57.71;99437.75;4484904;32;34470;-65
2021/12/27 03:03:11;;;;;;;17.23;10.13;;;;;;;-0.09;58.93;99431.84;4484793;32;34009;-65
2021/12/27 03:05:41;;;;;;;19.20;10.43;;;;;;;-0.10;58.86;99431.03;4484530;32;33713;-67
2021/12/27 03:08:13;;;;;;;16.83;9.05;;;;;;;-0.03;58.53;99434.59;4484956;32;34317;-66
2021/12/27 03:10:46;;;;;;;18.27;10.15;;;;;;;0.54;57.17;99432.94;4484810;32;34645;-65
2021/12/27 03:13:22;;;;;;;17.77;9.60;;;;;;;0.54;56.75;99416.91;4484893;32;33512;-65
2021/12/27 03:15:59;;;;;;;17.85;10.27;;;;;;;0.46;56.30;99417.03;4484500;32;33950;-65
2021/12/27 03:18:27;;;;;;;1.90;1.75;;;;;;;0.88;54.94;99420.66;4484728;32;35078;-66
2021/12/27 03:20:56;;;;;;;17.12;9.50;;;;;;;0.52;55.64;99416.28;4470600;32;34807;-65
2021/12/27 03:23:23;;;;;;;1.30;1.15;;;;;;;-0.08;57.81;99423.69;4484387;32;34576;-65
2021/12/27 03:25:53;;;;;;;0.57;0.57;;;;;;;0.49;56.42;99415.84;4484993;32;33555;-65
2021/12/27 03:28:21;;;;;;;15.95;9.55;;;;;;;0.73;54.86;99417.25;4484886;32;35027;-65
2021/12/27 03:30:49;;;;;;;16.30;9.43;;;;;;;0.58;55.23;99418.19;4484616;32;34301;-65
2021/12/27 03:33:20;;;;;;;15.82;9.45;;;;;;;0.79;55.21;99420.00;4484694;32;33450;-66
2021/12/27 03:35:59;;;;;;;15.32;9.27;;;;;;;0.68;55.80;99422.37;4484580;32;34098;-66
2021/12/27 03:38:33;;;;;;;2.12;1.95;;;;;;;0.25;57.68;99417.03;4484762;32;34276;-65
2021/12/27 03:41:03;;;;;;;1.30;1.20;;;;;;;0.32;58.28;99409.94;4485012;32;33817;-66
2021/12/27 03:43:30;;;;;;;17.15;9.20;;;;;;;0.73;56.72;99412.75;4484150;32;33243;-65
2021/12/27 03:45:58;;;;;;;17.17;9.02;;;;;;;0.64;56.57;99410.41;4484558;32;34095;-65
2021/12/27 03:48:26;;;;;;;14.52;8.90;;;;;;;0.23;57.12;99403.06;4484464;32;34173;-66
2021/12/27 03:50:53;;;;;;;15.98;8.80;;;;;;;0.04;57.93;99405.31;4484570;32;34489;-65
2021/12/27 03:53:21;;;;;;;15.48;8.77;;;;;;;0.67;56.74;99413.53;4484671;32;33693;-65
2021/12/27 03:55:48;;;;;;;0.82;0.82;;;;;;;0.62;56.44;99418.62;4484237;32;33988;-65
2021/12/27 03:58:29;;;;;;;14.52;9.15;;;;;;;0.88;55.07;99423.34;4484763;32;34174;-66
2021/12/27 04:01:02;;;;;;;16.05;9.27;;;;;;;0.67;55.23;99421.56;4484452;32;33986;-66
2021/12/27 04:03:54;;;;;;;14.77;9.07;;;;;;;0.71;55.55;99414.78;4484093;32;34202;-66
2021/12/27 04:06:40;;;;;;;14.55;8.95;;;;;;;0.00;58.01;99406.75;4484678;32;34682;-66
2021/12/27 04:09:27;;;;;;;0.60;0.60;;;;;;;-0.08;58.06;99418.34;4484407;32;35706;-70
2021/12/27 04:12:13;;;;;;;0.88;0.88;;;;;;;0.44;57.19;99421.75;4484302;32;34625;-65
2021/12/27 04:15:00;;;;;;;15.60;9.13;;;;;;;0.70;56.85;99418.47;4483557;32;34186;-68
2021/12/27 04:17:27;;;;;;;15.77;9.15;;;;;;;0.30;57.71;99425.28;4470588;32;34871;-68
2021/12/27 04:19:55;;;;;;;16.92;9.30;;;;;;;0.52;56.95;99415.44;4484480;32;35086;-68
2021/12/27 04:22:22;;;;;;;0.90;0.80;;;;;;;0.07;58.38;99418.31;4484749;32;33851;-68
2021/12/27 04:25:10;;;;;;;13.45;8.10;;;;;;;0.27;58.20;99415.84;4483779;32;33494;-67
2021/12/27 04:27:38;;;;;;;15.73;8.32;;;;;;;0.44;58.08;99410.25;4484233;32;33670;-67
2021/12/27 04:30:05;;;;;;;1.05;0.85;;;;;;;0.28;58.59;99414.84;4484016;32;34776;-68
2021/12/27 04:32:33;;;;;;;14.95;8.70;;;;;;;0.44;58.43;99412.91;4484385;32;33920;-67
2021/12/27 04:35:00;;;;;;;2.03;1.85;;;;;;;0.96;56.58;99411.69;4483385;32;34208;-68
2021/12/27 04:37:31;;;;;;;14.27;7.75;;;;;;;0.91;56.05;99406.13;4484131;32;33959;-67
2021/12/27 04:39:59;;;;;;;0.68;0.60;;;;;;;0.58;57.57;99412.84;4483788;32;34278;-68
2021/12/27 04:42:29;;;;;;;13.77;7.85;;;;;;;0.70;58.05;99409.66;4483301;32;34724;-68
2021/12/27 04:44:56;;;;;;;0.90;0.73;;;;;;;0.16;59.00;99411.00;4483295;32;33288;-67
2021/12/27 04:47:24;;;;;;;14.40;8.30;;;;;;;0.62;57.75;99413.28;4483845;32;33528;-68
2021/12/27 04:49:52;;;;;;;14.43;7.53;;;;;;;0.66;56.72;99408.38;4484330;32;34407;-68
2021/12/27 04:52:19;;;;;;;0.60;0.60;;;;;;;0.33;57.67;99415.06;4484016;32;34694;-68
2021/12/27 04:54:47;;;;;;;0.85;0.68;;;;;;;0.72;57.23;99411.09;4483462;32;33514;-68
2021/12/27 04:57:14;;;;;;;0.60;0.60;;;;;;;0.57;57.85;99413.03;4483885;32;34822;-67
2021/12/27 04:59:41;;;;;;;14.27;8.25;;;;;;;0.50;58.23;99415.66;4483704;32;34341;-68
2021/12/27 05:02:09;;;;;;;1.33;1.17;;;;;;;0.17;59.10;99417.97;4483562;32;33894;-68
2021/12/27 05:04:37;;;;;;;12.93;8.25;;;;;;;0.74;57.82;99422.41;4483187;32;33375;-68
2021/12/27 05:07:04;;;;;;;1.05;0.95;;;;;;;0.13;59.58;99412.22;4483767;32;33923;-68
2021/12/27 05:09:32;;;;;;;2.22;2.05;;;;;;;0.47;58.86;99416.00;4483617;32;35033;-67
2021/12/27 05:11:59;;;;;;;20.52;14.87;;;;;;;0.14;59.83;99421.03;4483707;32;33688;-68
2021/12/27 05:14:26;;;;;;;16.67;10.68;;;;;;;0.30;58.90;99419.97;4483430;32;32955;-68
2021/12/27 05:16:54;;;;;;;16.23;10.43;;;;;;;0.29;57.81;99423.66;4483244;32;33931;-68
2021/12/27 05:19:22;;;;;;;13.45;8.00;;;;;;;0.16;58.55;99417.16;4483720;32;34186;-68
2021/12/27 05:21:49;;;;;;;0.60;0.60;;;;;;;0.49;58.49;99419.31;4483505;32;33760;-68
2021/12/27 05:24:18;;;;;;;14.00;8.95;;;;;;;1.03;57.03;99412.56;4483040;32;33496;-68
2021/12/27 05:26:45;;;;;;;16.55;9.40;;;;;;;0.86;57.29;99421.87;4483329;32;34800;-67
2021/12/27 05:29:13;;;;;;;17.33;9.80;;;;;;;0.38;59.61;99419.84;4483372;32;34652;-68
2021/12/27 05:31:40;;;;;;;1.17;1.08;;;;;;;0.03;60.64;99418.88;4483210;32;34790;-67
2021/12/27 05:34:08;;;;;;;16.83;10.32;;;;;;;0.67;59.01;99413.53;4483233;32;32526;-68
2021/12/27 05:36:35;;;;;;;17.35;9.63;;;;;;;0.44;59.95;99412.91;4483346;32;33777;-67
2021/12/27 05:39:03;;;;;;;15.60;9.13;;;;;;;0.68;59.20;99409.84;4483023;32;33856;-67
2021/12/27 05:41:31;;;;;;;15.80;9.63;;;;;;;0.55;59.52;99413.22;4483302;32;34689;-67
2021/12/27 05:43:58;;;;;;;17.12;10.02;;;;;;;0.31;60.43;99406.44;4483076;32;33117;-67
2021/12/27 05:46:26;;;;;;;1.35;1.25;;;;;;;0.21;61.55;99413.91;4482673;32;34742;-67
2021/12/27 05:48:53;;;;;;;15.35;8.65;;;;;;;0.51;60.99;99411.94;4483419;32;34283;-67
2021/12/27 05:51:21;;;;;;;4.57;4.10;;;;;;;0.48;60.84;99407.00;4482939;32;34648;-67
2021/12/27 05:53:48;;;;;;;14.23;8.85;;;;;;;0.64;60.57;99413.09;4482678;32;34598;-67
2021/12/27 05:56:16;;;;;;;15.82;8.90;;;;;;;0.74;60.08;99414.41;4485433;32;33758;-67
2021/12/27 05:58:43;;;;;;;13.48;8.50;;;;;;;-0.29;63.69;99413.78;4485556;32;34795;-67
2021/12/27 06:01:11;;;;;;;13.68;8.40;;;;;;;-0.27;61.98;99409.09;4478880;31;33945;-66
2021/12/27 06:03:39;;;;;;;0.77;0.77;;;;;;;-0.18;61.40;99409.00;4485194;32;33474;-66
2021/12/27 06:06:07;;;;;;;12.02;7.50;;;;;;;0.01;60.47;99400.38;4485250;32;34557;-67
2021/12/27 06:08:34;;;;;;;13.85;7.43;;;;;;;-0.24;60.76;99405.22;4485161;32;34033;-66
2021/12/27 06:11:02;;;;;;;11.02;6.60;;;;;;;0.16;55.55;99393.16;4485304;32;34400;-67
2021/12/27 06:13:34;;;;;;;12.82;7.12;;;;;;;0.69;56.51;99399.97;4484989;32;34256;-66
2021/12/27 06:16:01;;;;;;;4.87;2.97;;;;;;;0.64;57.27;99397.06;4484617;32;34655;-66
2021/12/27 06:18:29;;;;;;;15.57;8.80;;;;;;;0.75;56.70;99393.88;4481924;32;34850;-67
2021/12/27 06:20:56;;;;;;;15.98;9.02;;;;;;;0.22;58.13;99393.41;4475532;31;33757;-65
2021/12/27 06:23:24;;;;;;;19.10;9.55;;;;;;;0.43;58.39;99390.72;4468793;32;33235;-68
2021/12/27 06:25:51;;;;;;;5.68;3.60;;;;;;;0.40;58.65;99385.78;4468878;32;34695;-68
2021/12/27 06:28:19;;;;;;;17.58;9.30;;;;;;;0.61;57.93;99384.94;4469327;32;34240;-71
2021/12/27 06:30:47;;;;;;;16.15;9.32;;;;;;;0.92;57.59;99394.41;4475046;32;33522;-69
2021/12/27 06:33:15;;;;;;;14.60;9.32;;;;;;;0.87;58.13;99395.00;4483116;32;33128;-67
2021/12/27 06:35:42;;;;;;;15.43;9.30;;;;;;;0.44;59.61;99394.25;4484429;32;33890;-70
2021/12/27 06:38:10;;;;;;;22.17;11.65;;;;;;;1.07;58.02;99395.12;4484390;32;33866;-71
2021/12/27 06:40:37;;;;;;;0.95;0.85;;;;;;;1.00;58.28;99392.41;4484540;32;34120;-69
2021/12/27 06:43:04;;;;;;;1.95;1.30;;;;;;;0.85;58.26;99390.87;4484769;32;33664;-69
2021/12/27 06:45:32;;;;;;;23.27;14.10;;;;;;;1.34;56.28;99388.09;4484146;32;33832;-70
2021/12/27 06:48:00;;;;;;;24.87;14.52;;;;;;;0.90;57.45;99385.75;4484441;32;34188;-72
2021/12/27 06:50:27;;;;;;;25.05;13.75;;;;;;;0.64;58.27;99389.06;4484009;32;33435;-69
2021/12/27 06:52:55;;;;;;;22.70;12.82;;;;;;;0.40;59.19;99385.78;4483878;32;33339;-69
2021/12/27 06:55:22;;;;;;;23.77;13.02;;;;;;;0.08;61.55;99387.94;4484494;32;33650;-70
2021/12/27 06:57:50;;;;;;;25.67;13.75;;;;;;;0.38;60.71;99380.62;4485101;32;34228;-70
2021/12/27 07:00:18;;;;;;;25.00;13.95;;;;;;;0.43;60.74;99393.41;4484618;32;34444;-68
2021/12/27 07:02:46;;;;;;;25.73;12.82;;;;;;;0.62;60.06;99389.25;4483613;32;33623;-69
2021/12/27 07:05:13;;;;;;;20.70;11.70;;;;;;;0.98;59.91;99388.28;4483878;32;34036;-70
2021/12/27 07:07:41;;;;;;;1.67;1.58;;;;;;;0.82;58.39;99389.41;4484645;32;33947;-70
2021/12/27 07:10:11;;;;;;;1.55;0.90;;;;;;;0.80;58.18;99394.94;4483607;32;33569;-70
2021/12/27 07:12:39;;;;;;;20.70;12.15;;;;;;;1.32;57.53;99392.81;4483545;32;33420;-70
2021/12/27 07:15:07;;;;;;;21.92;12.15;;;;;;;1.16;58.13;99391.25;4484110;32;34572;-70
2021/12/27 07:17:34;;;;;;;18.20;10.45;;;;;;;0.87;58.34;99392.31;4484645;32;35001;-69
2021/12/27 07:20:03;;;;;;;17.37;10.95;;;;;;;0.87;58.10;99383.50;4482777;32;33569;-71
2021/12/27 07:22:31;;;;;;;18.35;11.45;;;;;;;0.63;58.80;99380.22;4469967;32;33199;-70
2021/12/27 07:24:59;;;;;;;20.67;11.55;;;;;;;0.61;58.68;99383.09;4467414;32;33912;-69
2021/12/27 07:27:27;;;;;;;20.35;11.70;;;;;;;0.90;57.87;99386.59;4468386;32;35058;-69
2021/12/27 07:29:54;;;;;;;19.65;11.43;;;;;;;1.15;57.54;99396.81;4467060;32;33881;-72
2021/12/27 07:32:22;;;;;;;19.20;11.50;;;;;;;1.56;56.74;99396.03;4468648;32;34613;-70
2021/12/27 07:34:49;;;;;;;1.27;0.80;;;;;;;1.61;56.61;99405.06;4467902;32;34662;-69
2021/12/27 07:37:17;;;;;;;19.08;11.73;;;;;;;1.17;56.10;99400.13;4468650;32;34997;-70
2021/12/27 07:39:45;;;;;;;2.25;1.95;;;;;;;0.48;59.54;99395.50;4468126;32;33946;-68
2021/12/27 07:42:12;;;;;;;21.00;13.80;;;;;;;0.47;60.53;99399.19;4468385;32;33625;-67
2021/12/27 07:44:40;;;;;;;2.90;2.03;;;;;;;0.62;58.80;99398.06;4478197;32;34567;-65
2021/12/27 07:47:07;;;;;;;20.05;12.75;;;;;;;0.74;58.93;99401.06;4484060;32;34543;-68
2021/12/27 07:49:36;;;;;;;21.80;11.52;;;;;;;0.68;58.73;99393.00;4483948;32;34397;-65
2021/12/27 07:52:04;;;;;;;21.48;11.77;;;;;;;0.88;57.91;99396.63;4484449;32;33399;-65
2021/12/27 07:54:32;;;;;;;20.95;12.05;;;;;;;1.72;55.70;99395.66;4483206;32;34560;-64
2021/12/27 07:57:00;;;;;;;26.52;15.75;;;;;;;1.62;56.30;99393.38;4483681;32;34057;-65
2021/12/27 07:59:28;;;;;;;20.30;13.05;;;;;;;1.15;57.78;99394.16;4483291;32;33557;-64
2021/12/27 08:01:55;;;;;;;1.10;1.05;;;;;;;2.00;54.48;99386.69;4483431;32;34207;-64
2021/12/27 08:04:24;;;;;;;20.83;11.43;;;;;;;1.55;55.58;99389.81;4483796;32;33943;-65
2021/12/27 08:06:52;;;;;;;20.12;11.43;;;;;;;1.74;55.17;99385.59;4484166;32;34850;-65
2021/12/27 08:09:19;;;;;;;22.15;11.45;;;;;;;2.00;54.14;99392.88;4483577;32;34651;-65
2021/12/27 08:11:47;;;;;;;20.42;11.30;;;;;;;2.16;53.45;99390.84;4483840;32;34242;-65
2021/12/27 08:14:14;;;;;;;17.05;10.20;;;;;;;2.27;53.61;99387.59;4483297;32;34813;-65
2021/12/27 08:16:41;;;;;;;21.40;11.27;;;;;;;1.53;54.68;99380.34;4482048;32;34283;-65
2021/12/27 08:19:09;;;;;;;22.55;13.20;;;;;;;1.18;54.83;99386.56;4482934;32;34975;-66
2021/12/27 08:21:37;;;;;;;30.60;16.73;;;;;;;1.54;52.92;99385.50;4483915;32;33623;-66
2021/12/27 08:24:06;;;;;;;38.05;20.15;;;;;;;1.26;52.29;99374.91;4479612;32;33379;-64
2021/12/27 08:26:34;;;;;;;36.03;16.80;;;;;;;1.72;52.33;99384.13;4482645;32;33846;-65
2021/12/27 08:29:04;;;;;;;52.75;25.33;;;;;;;2.36;52.47;99383.69;4483565;32;34084;-64
2021/12/27 08:31:31;;;;;;;19.12;11.73;;;;;;;2.41;52.20;99381.19;4483563;32;33202;-65
2021/12/27 08:33:59;;;;;;;14.57;8.77;;;;;;;2.53;50.20;99383.25;4483438;32;34892;-66
2021/12/27 08:36:27;;;;;;;16.73;9.63;;;;;;;2.69;46.46;99382.06;4483709;32;34890;-67
2021/12/27 08:38:54;;;;;;;1.40;1.17;;;;;;;2.48;47.67;99383.87;4481462;32;33961;-66
2021/12/27 08:41:27;;;;;;;8.23;2.83;;;;;;;2.58;49.26;99386.16;4483433;32;33309;-66
2021/12/27 08:44:01;;;;;;;14.85;9.43;;;;;;;2.13;49.15;99392.06;4483285;32;33909;-69
2021/12/27 08:46:28;;;;;;;13.73;8.40;;;;;;;2.22;47.09;99390.03;4481968;32;34255;-70
2021/12/27 08:48:56;;;;;;;14.57;8.48;;;;;;;2.24;45.68;99396.00;4483369;32;33808;-72
2021/12/27 08:51:23;;;;;;;17.75;10.23;;;;;;;2.12;45.17;99401.16;4482865;32;33478;-72
2021/12/27 08:53:52;;;;;;;1.83;1.02;;;;;;;1.77;46.75;99408.44;4468406;32;33798;-71
2021/12/27 08:56:19;;;;;;;18.92;10.68;;;;;;;1.77;46.50;99395.91;4483471;32;34136;-71
2021/12/27 08:58:47;;;;;;;14.65;8.35;;;;;;;1.61;47.33;99404.25;4483413;32;34738;-69
2021/12/27 09:01:14;;;;;;;1.83;1.67;;;;;;;2.13;44.47;99402.78;4482759;32;34215;-69
2021/12/27 09:03:42;;;;;;;14.75;7.90;;;;;;;1.57;45.67;99400.31;4483246;32;33945;-71
2021/12/27 09:06:10;;;;;;;14.38;8.77;;;;;;;1.39;47.33;99393.66;4480740;32;33898;-69
2021/12/27 09:08:37;;;;;;;9.98;7.03;;;;;;;1.25;48.21;99396.47;4483341;32;34938;-70
2021/12/27 09:11:05;;;;;;;13.15;7.68;;;;;;;1.95;45.43;99391.84;4483485;32;33654;-69
2021/12/27 09:13:33;;;;;;;2.17;1.95;;;;;;;1.75;45.10;99389.94;4482333;32;33392;-69
2021/12/27 09:16:02;;;;;;;2.50;0.95;;;;;;;1.77;44.48;99390.56;4469251;32;34838;-70
2021/12/27 09:18:31;;;;;;;3.53;2.17;;;;;;;2.11;44.91;99396.81;4483515;32;33848;-70
2021/12/27 09:20:59;;;;;;;1.15;1.15;;;;;;;1.55;45.30;99394.34;4481900;32;33255;-69
2021/12/27 09:23:27;;;;;;;12.82;8.43;;;;;;;2.04;43.53;99398.66;4481793;32;33877;-70
2021/12/27 09:25:55;;;;;;;8.40;5.85;;;;;;;1.38;46.06;99399.19;4483265;32;34941;-70
2021/12/27 09:28:23;;;;;;;11.25;7.10;;;;;;;2.06;42.02;99388.56;4483918;32;33912;-69
2021/12/27 09:30:51;;;;;;;10.40;6.15;;;;;;;1.90;44.37;99383.56;4485518;32;33238;-69
2021/12/27 09:33:18;;;;;;;9.88;5.65;;;;;;;2.28;42.22;99380.38;4484096;32;34003;-72
2021/12/27 09:35:46;;;;;;;0.70;0.70;;;;;;;2.56;40.88;99378.31;4484780;32;33888;-72
2021/12/27 09:38:14;;;;;;;0.80;0.80;;;;;;;2.55;41.36;99379.38;4471311;32;33902;-72
2021/12/27 09:40:41;;;;;;;10.45;5.75;;;;;;;2.06;42.79;99375.19;4485558;32;33571;-71
2021/12/27 09:43:09;;;;;;;11.73;6.22;;;;;;;2.25;40.63;99371.72;4485148;32;33532;-72
2021/12/27 09:45:37;;;;;;;1.58;1.48;;;;;;;2.14;41.31;99375.00;4485112;32;34687;-72
2021/12/27 09:48:05;;;;;;;10.20;6.03;;;;;;;2.32;41.06;99362.88;4485249;32;33782;-72
2021/12/27 09:50:42;;;;;;;9.32;5.87;;;;;;;2.37;40.94;99363.09;4485370;32;34282;-73
2021/12/27 09:53:12;;;;;;;10.80;6.75;;;;;;;2.50;39.90;99364.94;4484177;32;34190;-73
2021/12/27 09:55:58;;;;;;;10.65;6.18;;;;;;;1.68;42.29;99359.63;4483951;32;33571;-73
2021/12/27 09:58:26;;;;;;;10.88;6.47;;;;;;;1.54;42.69;99355.28;4483960;32;34179;-73
2021/12/27 10:00:58;;;;;;;0.60;0.60;;;;;;;1.53;43.54;99353.63;4485457;32;34301;-73
2021/12/27 10:03:27;;;;;;;1.00;0.88;;;;;;;2.02;41.42;99356.03;4485173;32;34375;-72
2021/12/27 10:06:10;;;;;;;11.73;6.62;;;;;;;1.86;42.56;99351.06;4485253;32;35502;-73
2021/12/27 10:08:43;;;;;;;10.52;6.22;;;;;;;1.82;42.74;99357.84;4485192;32;35157;-71
2021/12/27 10:11:22;;;;;;;11.93;6.28;;;;;;;1.73;43.21;99351.00;4485240;32;33459;-72
2021/12/27 10:14:23;;;;;;;11.75;5.97;;;;;;;2.07;43.12;99351.94;4485059;32;33726;-74
2021/12/27 10:17:10;;;;;;;2.05;1.15;;;;;;;2.04;42.11;99351.31;4450938;32;35145;-73
2021/12/27 10:19:39;;;;;;;10.60;6.28;;;;;;;2.81;39.53;99350.94;4485351;32;33763;-73
2021/12/27 10:22:11;;;;;;;10.40;6.05;;;;;;;3.07;39.74;99350.88;4485024;32;33361;-74
2021/12/27 10:24:39;;;;;;;9.65;5.85;;;;;;;3.01;39.59;99342.84;4484590;32;33953;-74
2021/12/27 10:27:07;;;;;;;9.88;5.95;;;;;;;3.24;38.39;99348.56;4485234;32;34838;-74
2021/12/27 10:29:37;;;;;;;11.60;6.25;;;;;;;3.19;39.46;99342.19;4485017;32;34259;-73
2021/12/27 10:32:06;;;;;;;11.43;5.70;;;;;;;2.90;39.23;99341.62;4483926;32;33434;-72
2021/12/27 10:34:40;;;;;;;11.15;6.30;;;;;;;2.76;39.86;99348.84;4484660;32;33890;-74
2021/12/27 10:37:10;;;;;;;9.07;5.62;;;;;;;2.59;39.51;99353.84;4483966;32;34071;-74
2021/12/27 10:39:56;;;;;;;8.45;5.68;;;;;;;2.41;39.71;99348.25;4484359;31;33812;-73
2021/12/27 10:42:35;;;;;;;9.77;5.70;;;;;;;2.32;41.01;99350.31;4485310;32;33358;-74
2021/12/27 10:45:08;;;;;;;1.35;1.25;;;;;;;2.96;39.28;99348.00;4470651;32;33840;-73
2021/12/27 10:47:43;;;;;;;11.88;6.72;;;;;;;3.47;38.71;99352.59;4470926;32;33987;-73
2021/12/27 10:50:18;;;;;;;13.10;6.35;;;;;;;3.51;38.20;99345.78;4485013;32;33878;-73
2021/12/27 10:52:49;;;;;;;;;;;;;;;3.37;37.91;99347.69;4485170;32;33053;-73
2021/12/27 10:55:34;;;;;;;11.63;5.87;;;;;;;3.77;36.72;99344.03;4484613;32;34056;-73
2021/12/27 10:58:15;;;;;;;12.80;6.15;;;;;;;3.47;36.37;99350.75;4470612;32;34710;-72
2021/12/27 11:00:44;;;;;;;11.23;6.05;;;;;;;2.88;36.93;99341.84;4469172;32;33568;-72
2021/12/27 11:03:32;;;;;;;11.40;6.80;;;;;;;2.56;39.07;99340.03;4477161;32;33453;-70
2021/12/27 11:06:02;;;;;;;1.30;1.20;;;;;;;3.40;36.64;99333.03;4484614;32;34550;-69
2021/12/27 11:08:32;;;;;;;14.63;7.65;;;;;;;3.26;37.19;99327.72;4484530;32;34917;-69
2021/12/27 11:11:00;;;;;;;0.68;0.68;;;;;;;3.67;36.84;99331.06;4484768;32;34427;-68
2021/12/27 11:13:28;;;;;;;19.35;9.77;;;;;;;4.09;37.54;99332.25;4482199;32;33625;-68
2021/12/27 11:15:56;;;;;;;19.42;9.90;;;;;;;4.07;39.73;99325.47;4484297;32;34807;-66
2021/12/27 11:18:24;;;;;;;21.83;9.93;;;;;;;3.46;35.86;99324.16;4484472;32;34761;-70
2021/12/27 11:21:04;;;;;;;19.85;9.63;;;;;;;3.37;37.14;99323.56;4484688;32;34023;-70
2021/12/27 11:23:32;;;;;;;0.70;0.70;;;;;;;2.63;38.80;99330.94;4482885;32;33502;-73
2021/12/27 11:26:25;;;;;;;1.23;0.82;;;;;;;2.04;42.74;99327.22;4484534;32;33977;-71
2021/12/27 11:29:08;;;;;;;14.63;7.85;;;;;;;3.75;40.22;99312.03;4484530;32;33930;-67
2021/12/27 11:31:37;;;;;;;14.40;7.90;;;;;;;4.09;39.38;99310.78;4484154;32;34451;-67
2021/12/27 11:34:07;;;;;;;12.65;7.80;;;;;;;3.43;39.12;99316.50;4484558;32;34252;-68
2021/12/27 11:36:37;;;;;;;11.32;7.30;;;;;;;2.65;42.30;99318.16;4484533;32;34146;-68
2021/12/27 11:39:25;;;;;;;13.52;7.20;;;;;;;2.57;40.95;99317.56;4484386;31;33976;-68
2021/12/27 11:42:03;;;;;;;14.27;7.22;;;;;;;2.69;39.29;99307.06;4476641;32;34162;-64
2021/12/27 11:44:40;;;;;;;12.18;7.72;;;;;;;2.44;40.19;99310.34;4468953;32;33802;-69
2021/12/27 11:47:09;;;;;;;13.62;7.75;;;;;;;2.41;39.80;99308.91;4469264;32;33663;-68
2021/12/27 11:49:46;;;;;;;11.85;6.87;;;;;;;2.49;39.68;99307.06;4468991;32;35127;-64
2021/12/27 11:52:14;;;;;;;15.25;7.37;;;;;;;2.74;40.47;99301.88;4469027;32;34017;-69